Myerstown, Pennsylvania
Current Conditions -  °F | °C
As of 9:58 PM on Monday 20 Oct 2014 (Local Time) from KMUI Reporting Station
Overcast Overcast  
Wind Chill: 10°   Ceiling: 8500
Heat Index: 10°   Visibility: 10mi
Dew Point: 10°   Wind: 2mph
Humidity: 99%   Direction: 50°NE
Pressure: 29.95"   Gusts: NA
Location:  40.37°N, 76.3°W
Report Text: KMUI 210158Z AUTO 05002KT 10SM FEW060 OVC085 10/10 A2995 RMK AO2 RAB0125E0134 SLP147 P0000 T01030102 $
Loading
Personal Weather Stations






























Interactive Weather Map
Tropical Storm Tracking
New forecast layout! Learn more

10-Day Weather Forecast

Advertisements
Track Severe Weather on mobile